createdAt,value
2018-12-15T00:01:10.459Z,11.78
2018-12-15T00:03:13.698Z,10.50
2018-12-15T00:05:17.183Z,10.50
2018-12-15T00:07:20.668Z,11.15
2018-12-15T00:09:24.466Z,11.07
2018-12-15T00:11:27.994Z,11.10
2018-12-15T00:13:32.127Z,10.72
2018-12-15T00:15:35.657Z,10.30
2018-12-15T00:17:38.826Z,11.50
2018-12-15T00:19:42.646Z,10.70
2018-12-15T00:21:46.289Z,10.32
2018-12-15T00:23:49.794Z,10.78
2018-12-15T00:25:53.271Z,9.93
2018-12-15T00:27:56.749Z,10.18
2018-12-15T00:30:00.347Z,10.70
2018-12-15T00:32:03.818Z,9.90
2018-12-15T00:34:07.317Z,10.53
2018-12-15T00:36:11.094Z,10.40
2018-12-15T00:38:14.594Z,10.50
2018-12-15T00:40:18.125Z,10.30
2018-12-15T00:42:33.156Z,10.32
2018-12-15T00:44:36.750Z,9.93
2018-12-15T00:46:40.258Z,10.53
2018-12-15T00:48:43.797Z,10.20
2018-12-15T00:50:47.120Z,10.13
2018-12-15T00:52:50.782Z,10.00
2018-12-15T00:54:54.192Z,10.80
2018-12-15T00:56:57.674Z,10.28
2018-12-15T00:59:01.173Z,10.70
2018-12-15T01:01:05.172Z,10.10
2018-12-15T01:03:08.353Z,10.67
2018-12-15T01:05:12.261Z,10.58
2018-12-15T01:07:15.486Z,10.63
2018-12-15T01:09:18.986Z,10.60
2018-12-15T01:11:22.609Z,10.15
2018-12-15T01:13:26.106Z,10.95
2018-12-15T01:15:35.508Z,10.45
2018-12-15T01:17:38.730Z,11.28
2018-12-15T01:19:42.192Z,10.55
2018-12-15T01:21:46.037Z,10.55
2018-12-15T01:23:49.519Z,9.85
2018-12-15T01:25:52.957Z,10.43
2018-12-15T01:27:56.420Z,10.53
2018-12-15T01:29:59.886Z,9.93
2018-12-15T01:32:03.882Z,10.50
2018-12-15T01:34:07.671Z,11.33
2018-12-15T01:36:11.196Z,10.43
2018-12-15T01:38:14.673Z,10.60
2018-12-15T01:40:18.614Z,11.22
2018-12-15T01:42:22.512Z,10.00
2018-12-15T01:44:26.005Z,10.80
2018-12-15T01:46:30.226Z,10.13
2018-12-15T01:48:34.314Z,10.50
2018-12-15T01:50:37.522Z,10.30
2018-12-15T01:52:40.902Z,10.40
2018-12-15T01:54:44.358Z,9.88
2018-12-15T01:56:47.578Z,11.00
2018-12-15T01:58:50.782Z,10.27
2018-12-15T02:00:54.258Z,10.35
2018-12-15T02:02:57.692Z,11.22
2018-12-15T02:05:01.346Z,10.68
2018-12-15T02:07:05.586Z,11.30
2018-12-15T02:09:09.414Z,10.85
2018-12-15T02:11:12.918Z,10.90
2018-12-15T02:13:16.102Z,10.65
2018-12-15T02:15:19.327Z,10.60
2018-12-15T02:17:22.830Z,10.28
2018-12-15T02:19:26.278Z,10.70
2018-12-15T02:21:29.460Z,10.43
2018-12-15T02:23:33.232Z,10.53
2018-12-15T02:25:37.230Z,10.10
2018-12-15T02:27:40.673Z,9.93
2018-12-15T02:29:44.159Z,10.30
2018-12-15T02:31:47.691Z,10.65
2018-12-15T02:33:51.428Z,10.43
2018-12-15T02:35:54.626Z,11.40
2018-12-15T02:37:58.148Z,10.60
2018-12-15T02:40:01.675Z,10.58
2018-12-15T02:42:05.849Z,11.10
2018-12-15T02:44:09.041Z,10.50
2018-12-15T02:46:12.567Z,10.53
2018-12-15T02:48:16.039Z,11.10
2018-12-15T02:50:19.554Z,11.50
2018-12-15T02:52:22.998Z,9.93
2018-12-15T02:54:26.174Z,10.10
2018-12-15T02:56:29.978Z,10.40
2018-12-15T02:58:33.158Z,10.70
2018-12-15T03:00:36.438Z,10.97
2018-12-15T03:02:39.971Z,10.58
2018-12-15T03:04:50.821Z,10.75
2018-12-15T03:06:54.286Z,11.18
2018-12-15T03:08:58.436Z,11.10
2018-12-15T03:11:01.625Z,10.93
2018-12-15T03:13:05.530Z,11.53
2018-12-15T03:15:08.791Z,10.70
2018-12-15T03:17:12.533Z,11.75
2018-12-15T03:19:15.737Z,10.80
2018-12-15T03:21:19.447Z,10.82
2018-12-15T03:23:23.187Z,11.22
2018-12-15T03:25:26.685Z,10.95
2018-12-15T03:27:30.157Z,11.30
2018-12-15T03:29:33.707Z,11.53
2018-12-15T03:31:37.344Z,10.72
2018-12-15T03:33:41.094Z,11.50
2018-12-15T03:35:44.362Z,11.30
2018-12-15T03:37:47.849Z,11.38
2018-12-15T03:39:51.315Z,12.30
2018-12-15T03:41:54.917Z,11.70
2018-12-15T03:43:58.415Z,11.80
2018-12-15T03:46:01.834Z,11.67
2018-12-15T03:48:05.310Z,11.90
2018-12-15T03:50:08.915Z,12.43
2018-12-15T03:52:12.415Z,12.10
2018-12-15T03:54:15.578Z,12.65
2018-12-15T03:56:18.746Z,12.05
2018-12-15T03:58:22.190Z,12.70
2018-12-15T04:00:25.895Z,11.68
2018-12-15T04:02:29.139Z,12.63
2018-12-15T04:04:33.794Z,12.70
2018-12-15T04:06:37.350Z,12.40
2018-12-15T04:08:41.135Z,12.55
2018-12-15T04:10:44.767Z,13.17
2018-12-15T04:12:48.286Z,13.18
2018-12-15T04:14:52.210Z,13.10
2018-12-15T04:16:55.734Z,14.27
2018-12-15T04:18:59.191Z,13.48
2018-12-15T04:21:02.390Z,13.20
2018-12-15T04:23:06.167Z,13.40
2018-12-15T04:25:09.659Z,13.93
2018-12-15T04:27:13.847Z,14.33
2018-12-15T04:29:17.371Z,14.43
2018-12-15T04:31:20.935Z,14.63
2018-12-15T04:33:24.740Z,14.85
2018-12-15T04:35:27.930Z,13.85
2018-12-15T04:37:31.110Z,15.10
2018-12-15T04:39:34.635Z,14.87
2018-12-15T04:41:38.439Z,14.70
2018-12-15T04:43:42.311Z,13.65
2018-12-15T04:45:46.220Z,14.47
2018-12-15T04:47:49.403Z,15.10
2018-12-15T04:49:52.874Z,14.93
2018-12-15T04:51:56.342Z,15.03
2018-12-15T04:53:59.546Z,15.27
2018-12-15T04:56:04.001Z,15.32
2018-12-15T04:58:07.463Z,14.43
2018-12-15T05:00:11.613Z,15.35
2018-12-15T05:02:15.350Z,14.70
2018-12-15T05:04:18.548Z,14.73
2018-12-15T05:06:21.890Z,13.90
2018-12-15T05:08:25.362Z,14.73
2018-12-15T05:10:28.851Z,15.15
2018-12-15T05:12:32.442Z,15.32
2018-12-15T05:14:35.614Z,15.00
2018-12-15T05:16:38.809Z,15.13
2018-12-15T05:18:42.426Z,15.23
2018-12-15T05:20:45.939Z,15.58
2018-12-15T05:22:49.406Z,15.88
2018-12-15T05:24:53.134Z,15.80
2018-12-15T05:26:56.586Z,15.95
2018-12-15T05:29:00.050Z,16.07
2018-12-15T05:31:03.750Z,15.85
2018-12-15T05:33:07.239Z,16.02
2018-12-15T05:35:10.706Z,16.90
2018-12-15T05:37:14.438Z,16.30
2018-12-15T05:39:17.908Z,15.80
2018-12-15T05:41:21.358Z,15.40
2018-12-15T05:43:24.878Z,15.43
2018-12-15T05:45:28.346Z,16.50
2018-12-15T05:47:31.836Z,15.83
2018-12-15T05:49:35.306Z,16.62
2018-12-15T05:51:39.270Z,16.67
2018-12-15T05:53:43.024Z,16.00
2018-12-15T05:55:46.454Z,16.12
2018-12-15T05:57:49.650Z,16.50
2018-12-15T05:59:53.145Z,17.07
2018-12-15T06:01:57.270Z,17.05
2018-12-15T06:04:01.353Z,16.37
2018-12-15T06:06:04.778Z,16.80
2018-12-15T06:08:08.251Z,16.85
2018-12-15T06:10:12.182Z,16.40
2018-12-15T06:12:16.090Z,18.15
2018-12-15T06:14:19.559Z,17.50
2018-12-15T06:16:23.052Z,17.50
2018-12-15T06:18:31.602Z,17.57
2018-12-15T06:20:33.427Z,16.80
2018-12-15T06:22:36.925Z,17.20
2018-12-15T06:24:40.608Z,17.85
2018-12-15T06:26:44.054Z,17.50
2018-12-15T06:28:47.850Z,17.37
2018-12-15T06:30:51.309Z,17.00
2018-12-15T06:32:54.814Z,17.70
2018-12-15T06:34:58.454Z,18.75
2018-12-15T06:37:01.930Z,17.92
2018-12-15T06:39:07.371Z,17.60
2018-12-15T06:41:10.550Z,18.03
2018-12-15T06:43:14.307Z,18.20
2018-12-15T06:45:17.964Z,17.73
2018-12-15T06:47:21.452Z,18.37
2018-12-15T06:49:25.730Z,18.10
2018-12-15T06:51:29.539Z,18.35
2018-12-15T06:53:32.757Z,19.10
2018-12-15T06:55:36.234Z,18.30
2018-12-15T06:57:40.470Z,18.32
2018-12-15T06:59:44.113Z,18.50
2018-12-15T07:01:47.608Z,18.48
2018-12-15T07:03:50.850Z,19.62
2018-12-15T07:05:54.782Z,18.48
2018-12-15T07:07:58.001Z,18.60
2018-12-15T07:10:01.551Z,19.37
2018-12-15T07:12:05.597Z,18.90
2018-12-15T07:14:09.074Z,18.52
2018-12-15T07:16:12.557Z,18.62
2018-12-15T07:18:16.216Z,18.87
2018-12-15T07:20:20.050Z,18.10
2018-12-15T07:22:23.990Z,18.75
2018-12-15T07:24:27.546Z,19.20
2018-12-15T07:26:31.448Z,19.70
2018-12-15T07:28:34.914Z,18.42
2018-12-15T07:30:38.142Z,18.57
2018-12-15T07:32:41.345Z,19.00
2018-12-15T07:34:44.830Z,22.27
2018-12-15T07:36:48.979Z,18.48
2018-12-15T07:38:52.475Z,19.62
2018-12-15T07:40:55.935Z,18.12
2018-12-15T07:42:59.419Z,18.57
2018-12-15T07:45:02.664Z,17.33
2018-12-15T07:47:06.629Z,17.92
2018-12-15T07:49:10.119Z,18.07
2018-12-15T07:51:14.002Z,18.35
2018-12-15T07:53:17.475Z,18.98
2018-12-15T07:55:21.232Z,18.23
2018-12-15T07:57:24.754Z,18.70
2018-12-15T07:59:27.939Z,19.00
2018-12-15T08:01:31.624Z,18.90
2018-12-15T08:03:35.363Z,18.07
2018-12-15T08:05:38.830Z,19.32
2018-12-15T08:07:42.310Z,17.70
2018-12-15T08:09:48.075Z,17.60
2018-12-15T08:11:57.552Z,19.20
2018-12-15T08:14:04.974Z,18.07
2018-12-15T08:16:08.188Z,17.20
2018-12-15T08:18:11.391Z,17.73
2018-12-15T08:20:14.914Z,18.50
2018-12-15T08:22:18.926Z,17.05
2018-12-15T08:24:22.914Z,16.87
2018-12-15T08:26:27.162Z,17.57
2018-12-15T08:28:31.061Z,17.37
2018-12-15T08:30:34.545Z,18.23
2018-12-15T08:32:37.749Z,17.67
2018-12-15T08:34:41.655Z,17.35
2018-12-15T08:36:45.248Z,18.00
2018-12-15T08:38:48.819Z,17.17
2018-12-15T08:40:53.068Z,18.23
2018-12-15T08:42:57.137Z,17.48
2018-12-15T08:45:00.622Z,17.20
2018-12-15T08:47:04.120Z,18.27
2018-12-15T08:49:07.586Z,17.30
2018-12-15T08:51:12.480Z,17.30
2018-12-15T08:53:16.775Z,17.12
2018-12-15T08:55:20.687Z,17.85
2018-12-15T08:57:26.057Z,17.65
2018-12-15T08:59:29.303Z,16.82
2018-12-15T09:01:32.672Z,17.65
2018-12-15T09:03:36.410Z,17.98
2018-12-15T09:05:40.228Z,18.75
2018-12-15T09:07:43.952Z,17.65
2018-12-15T09:09:47.429Z,17.37
2018-12-15T09:11:51.122Z,16.90
2018-12-15T09:13:54.871Z,16.48
2018-12-15T09:15:58.074Z,17.20
2018-12-15T09:18:02.291Z,16.42
2018-12-15T09:20:06.843Z,17.07
2018-12-15T09:22:11.718Z,15.93
2018-12-15T09:24:15.832Z,17.20
2018-12-15T09:26:19.331Z,16.35
2018-12-15T09:28:23.203Z,16.32
2018-12-15T09:30:27.236Z,17.30
2018-12-15T09:32:31.036Z,17.25
2018-12-15T09:34:34.544Z,16.60
2018-12-15T09:36:38.234Z,16.23
2018-12-15T09:38:41.735Z,15.70
2018-12-15T09:40:45.310Z,17.60
2018-12-15T09:42:48.826Z,15.20
2018-12-15T09:44:52.232Z,15.80
2018-12-15T09:46:55.712Z,15.40
2018-12-15T09:49:00.576Z,15.98
2018-12-15T09:51:04.496Z,14.90
2018-12-15T09:53:07.995Z,15.48
2018-12-15T09:55:11.691Z,15.10
2018-12-15T09:57:15.174Z,15.75
2018-12-15T09:59:18.793Z,15.70
2018-12-15T10:01:22.742Z,15.80
2018-12-15T10:03:26.217Z,15.60
2018-12-15T10:05:30.458Z,14.40
2018-12-15T10:07:34.296Z,15.10
2018-12-15T10:09:37.786Z,14.55
2018-12-15T10:11:40.966Z,14.57
2018-12-15T10:13:44.530Z,13.80
2018-12-15T10:15:48.012Z,14.35
2018-12-15T10:17:51.280Z,14.60
2018-12-15T10:19:55.538Z,15.35
2018-12-15T10:21:59.204Z,15.65
2018-12-15T10:24:02.443Z,14.13
2018-12-15T10:26:05.962Z,15.30
2018-12-15T10:28:09.543Z,15.43
2018-12-15T10:30:19.212Z,14.43
2018-12-15T10:32:28.253Z,13.32
2018-12-15T10:34:31.846Z,13.85
2018-12-15T10:36:35.366Z,13.32
2018-12-15T10:38:38.853Z,13.03
2018-12-15T10:40:42.062Z,15.03
2018-12-15T10:42:45.554Z,14.23
2018-12-15T10:44:49.207Z,13.83
2018-12-15T10:46:52.863Z,13.60
2018-12-15T10:48:56.362Z,12.88
2018-12-15T10:50:59.882Z,13.10
2018-12-15T10:53:03.438Z,12.88
2018-12-15T10:55:08.306Z,12.93
2018-12-15T10:57:11.803Z,12.90
2018-12-15T10:59:15.566Z,11.70
2018-12-15T11:01:22.600Z,13.03
2018-12-15T11:03:26.543Z,13.03
2018-12-15T11:05:29.783Z,12.73
2018-12-15T11:07:34.311Z,11.50
2018-12-15T11:09:38.381Z,12.20
2018-12-15T11:11:42.709Z,10.95
2018-12-15T11:13:46.565Z,11.53
2018-12-15T11:15:50.067Z,11.35
2018-12-15T11:17:53.366Z,11.10
2018-12-15T11:19:57.062Z,11.50
2018-12-15T11:22:00.934Z,11.22
2018-12-15T11:24:04.858Z,11.30
2018-12-15T11:26:08.370Z,10.80
2018-12-15T11:28:11.546Z,11.85
2018-12-15T11:30:15.214Z,14.33
2018-12-15T11:32:18.666Z,11.48
2018-12-15T11:34:22.154Z,10.50
2018-12-15T11:36:25.698Z,11.00
2018-12-15T11:38:29.233Z,12.00
2018-12-15T11:40:32.727Z,11.55
2018-12-15T11:42:36.270Z,12.35
2018-12-15T11:44:40.230Z,11.30
2018-12-15T11:46:43.443Z,10.72
2018-12-15T11:48:47.280Z,11.57
2018-12-15T11:50:51.046Z,10.72
2018-12-15T11:52:54.559Z,12.15
2018-12-15T11:54:57.736Z,10.85
2018-12-15T11:57:01.929Z,10.60
2018-12-15T11:59:05.182Z,11.47
2018-12-15T12:01:08.790Z,10.60
2018-12-15T12:03:12.289Z,10.85
2018-12-15T12:05:15.680Z,10.90
2018-12-15T12:07:19.822Z,10.75
2018-12-15T12:09:23.303Z,11.63
2018-12-15T12:11:26.474Z,10.45
2018-12-15T12:13:29.731Z,10.38
2018-12-15T12:15:33.634Z,9.75
2018-12-15T12:17:36.829Z,11.08
2018-12-15T12:19:40.025Z,9.90
2018-12-15T12:21:43.540Z,10.55
2018-12-15T12:23:47.011Z,10.30
2018-12-15T12:25:51.217Z,9.65
2018-12-15T12:27:54.531Z,9.73
2018-12-15T12:29:58.099Z,8.33
2018-12-15T12:32:02.150Z,8.83
2018-12-15T12:34:05.944Z,9.80
2018-12-15T12:36:09.813Z,8.93
2018-12-15T12:38:13.289Z,9.45
2018-12-15T12:40:17.178Z,9.40
2018-12-15T12:42:20.707Z,9.20
2018-12-15T12:44:24.050Z,9.70
2018-12-15T12:46:27.519Z,9.18
2018-12-15T12:48:31.420Z,8.85
2018-12-15T12:50:35.238Z,8.20
2018-12-15T12:52:38.720Z,8.30
2018-12-15T12:54:42.862Z,7.40
2018-12-15T12:56:46.532Z,5.65
2018-12-15T12:58:50.115Z,5.28
2018-12-15T13:00:53.618Z,5.53
2018-12-15T13:02:57.224Z,5.60
2018-12-15T13:05:00.774Z,6.10
2018-12-15T13:07:04.498Z,5.70
2018-12-15T13:09:08.805Z,5.60
2018-12-15T13:11:12.059Z,5.40
2018-12-15T13:13:16.332Z,5.85
2018-12-15T13:15:20.210Z,6.00
2018-12-15T13:17:23.690Z,6.25
2018-12-15T13:19:27.178Z,5.60
2018-12-15T13:21:31.446Z,5.78
2018-12-15T13:23:34.913Z,5.53
2018-12-15T13:25:39.242Z,6.00
2018-12-15T13:27:42.432Z,5.80
2018-12-15T13:29:46.346Z,6.17
2018-12-15T13:31:50.494Z,6.00
2018-12-15T13:33:54.040Z,5.80
2018-12-15T13:35:57.734Z,6.17
2018-12-15T13:38:01.574Z,5.70
2018-12-15T13:40:06.676Z,6.50
2018-12-15T13:42:10.597Z,5.92
2018-12-15T13:44:14.226Z,5.80
2018-12-15T13:46:18.511Z,5.60
2018-12-15T13:48:22.006Z,5.30
2018-12-15T13:50:25.191Z,5.72
2018-12-15T13:52:28.778Z,5.20
2018-12-15T13:54:32.262Z,5.40
2018-12-15T13:56:35.562Z,5.20
2018-12-15T13:58:38.787Z,5.90
2018-12-15T14:00:42.747Z,5.70
2018-12-15T14:02:46.253Z,5.92
2018-12-15T14:04:49.853Z,5.70
2018-12-15T14:06:53.366Z,5.30
2018-12-15T14:08:56.928Z,5.60
2018-12-15T14:11:00.139Z,6.00
2018-12-15T14:13:03.704Z,6.00
2018-12-15T14:15:08.013Z,5.80
2018-12-15T14:17:11.836Z,6.00
2018-12-15T14:19:15.962Z,6.12
2018-12-15T14:21:19.681Z,5.80
2018-12-15T14:23:23.238Z,5.97
2018-12-15T14:25:26.859Z,5.70
2018-12-15T14:27:30.551Z,5.75
2018-12-15T14:29:34.038Z,5.70
2018-12-15T14:31:37.498Z,5.33
2018-12-15T14:33:40.678Z,5.50
2018-12-15T14:35:44.386Z,6.30
2018-12-15T14:37:48.252Z,5.83
2018-12-15T14:39:52.366Z,6.15
2018-12-15T14:41:55.843Z,6.30
2018-12-15T14:43:59.946Z,6.60
2018-12-15T14:46:03.662Z,6.20
2018-12-15T14:48:07.542Z,6.40
2018-12-15T14:50:11.942Z,6.40
2018-12-15T14:52:15.962Z,6.75
2018-12-15T14:54:19.160Z,6.70
2018-12-15T14:56:22.517Z,6.40
2018-12-15T14:58:26.434Z,6.97
2018-12-15T15:00:29.971Z,6.28
2018-12-15T15:02:33.848Z,7.00
2018-12-15T15:04:38.187Z,6.75
2018-12-15T15:06:41.657Z,6.30
2018-12-15T15:08:45.134Z,6.30
2018-12-15T15:10:49.135Z,7.07
2018-12-15T15:12:52.594Z,6.97
2018-12-15T15:14:55.815Z,6.90
2018-12-15T15:16:59.414Z,7.20
2018-12-15T15:19:02.943Z,7.40
2018-12-15T15:21:06.450Z,7.05
2018-12-15T15:23:10.129Z,7.33
2018-12-15T15:25:13.697Z,7.20
2018-12-15T15:27:17.160Z,6.87
2018-12-15T15:29:20.658Z,6.80
2018-12-15T15:31:24.535Z,7.55
2018-12-15T15:33:28.022Z,7.08
2018-12-15T15:35:32.511Z,7.17
2018-12-15T15:37:36.011Z,7.60
2018-12-15T15:39:39.502Z,6.87
2018-12-15T15:41:43.026Z,7.10
2018-12-15T15:43:46.995Z,6.80
2018-12-15T15:45:50.490Z,7.53
2018-12-15T15:47:53.702Z,7.60
2018-12-15T15:49:57.335Z,7.70
2018-12-15T15:52:00.790Z,7.80
2018-12-15T15:54:04.975Z,8.33
2018-12-15T15:56:08.887Z,7.80
2018-12-15T15:58:12.126Z,7.57
2018-12-15T16:00:16.255Z,7.50
2018-12-15T16:02:20.633Z,8.10
2018-12-15T16:04:24.131Z,7.55
2018-12-15T16:06:28.057Z,7.80
2018-12-15T16:08:31.960Z,8.05
2018-12-15T16:10:35.510Z,7.87
2018-12-15T16:12:39.443Z,7.50
2018-12-15T16:14:42.949Z,7.80
2018-12-15T16:16:46.946Z,7.85
2018-12-15T16:18:50.515Z,7.87
2018-12-15T16:20:54.314Z,8.00
2018-12-15T16:22:57.787Z,8.30
2018-12-15T16:25:01.662Z,8.13
2018-12-15T16:27:04.998Z,7.87
2018-12-15T16:29:08.631Z,8.35
2018-12-15T16:31:12.635Z,8.93
2018-12-15T16:33:16.545Z,8.40
2018-12-15T16:35:20.867Z,8.53
2018-12-15T16:37:24.914Z,9.10
2018-12-15T16:39:28.166Z,8.88
2018-12-15T16:41:33.274Z,8.23
2018-12-15T16:43:37.087Z,8.80
2018-12-15T16:45:40.941Z,8.80
2018-12-15T16:47:44.764Z,9.28
2018-12-15T16:49:48.301Z,8.93
2018-12-15T16:51:51.510Z,9.70
2018-12-15T16:53:55.113Z,9.43
2018-12-15T16:55:58.601Z,9.95
2018-12-15T16:58:02.214Z,12.47
2018-12-15T17:00:10.573Z,9.70
2018-12-15T17:02:14.370Z,9.50
2018-12-15T17:04:17.836Z,9.48
2018-12-15T17:06:21.080Z,11.13
2018-12-15T17:08:24.738Z,9.08
2018-12-15T17:10:29.135Z,10.20
2018-12-15T17:12:32.342Z,10.73
2018-12-15T17:14:35.923Z,11.20
2018-12-15T17:16:39.390Z,10.98
2018-12-15T17:18:42.951Z,10.45
2018-12-15T17:20:46.525Z,10.48
2018-12-15T17:22:50.134Z,10.68
2018-12-15T17:24:53.334Z,10.45
2018-12-15T17:26:56.788Z,10.80
2018-12-15T17:29:03.007Z,10.35
2018-12-15T17:31:07.106Z,10.38
2018-12-15T17:33:10.914Z,10.88
2018-12-15T17:35:14.445Z,10.00
2018-12-15T17:37:17.891Z,10.27
2018-12-15T17:39:22.267Z,10.00
2018-12-15T17:41:26.664Z,9.75
2018-12-15T17:43:29.860Z,9.88
2018-12-15T17:45:34.102Z,10.68
2018-12-15T17:47:37.625Z,10.72
2018-12-15T17:49:41.031Z,10.43
2018-12-15T17:51:45.142Z,10.00
2018-12-15T17:53:48.364Z,10.60
2018-12-15T17:55:51.826Z,11.15
2018-12-15T17:57:55.309Z,10.45
2018-12-15T17:59:58.936Z,10.03
2018-12-15T18:02:03.001Z,10.80
2018-12-15T18:04:06.462Z,10.38
2018-12-15T18:06:10.114Z,10.10
2018-12-15T18:08:13.610Z,10.38
2018-12-15T18:10:17.198Z,10.00
2018-12-15T18:12:20.695Z,11.25
2018-12-15T18:14:23.969Z,10.50
2018-12-15T18:16:27.706Z,11.65
2018-12-15T18:18:30.922Z,11.35
2018-12-15T18:20:34.171Z,10.40
2018-12-15T18:22:37.675Z,11.05
2018-12-15T18:24:41.595Z,10.68
2018-12-15T18:26:45.338Z,10.80
2018-12-15T18:28:49.006Z,11.08
2018-12-15T18:30:52.474Z,10.65
2018-12-15T18:32:56.070Z,10.72
2018-12-15T18:34:59.593Z,11.08
2018-12-15T18:37:03.142Z,11.00
2018-12-15T18:39:10.345Z,10.38
2018-12-15T18:41:13.760Z,11.50
2018-12-15T18:43:17.343Z,9.80
2018-12-15T18:45:23.172Z,10.28
2018-12-15T18:47:26.751Z,10.75
2018-12-15T18:49:30.503Z,10.70
2018-12-15T18:51:34.471Z,10.33
2018-12-15T18:53:38.238Z,10.50
2018-12-15T18:55:41.755Z,9.90
2018-12-15T18:57:45.183Z,9.10
2018-12-15T18:59:48.772Z,9.50
2018-12-15T19:01:52.709Z,9.30
2018-12-15T19:03:56.813Z,9.00
2018-12-15T19:06:00.354Z,8.65
2018-12-15T19:08:03.621Z,8.70
2018-12-15T19:10:08.218Z,8.58
2018-12-15T19:12:13.129Z,9.20
2018-12-15T19:14:16.616Z,8.78
2018-12-15T19:16:20.790Z,9.30
2018-12-15T19:18:24.426Z,9.48
2018-12-15T19:20:28.052Z,9.08
2018-12-15T19:22:31.650Z,8.90
2018-12-15T19:24:35.318Z,8.85
2018-12-15T19:26:39.249Z,8.40
2018-12-15T19:28:42.882Z,8.10
2018-12-15T19:30:46.862Z,8.50
2018-12-15T19:32:50.055Z,8.90
2018-12-15T19:34:53.336Z,8.40
2018-12-15T19:36:57.034Z,8.65
2018-12-15T19:39:00.546Z,8.95
2018-12-15T19:41:07.216Z,8.78
2018-12-15T19:43:10.433Z,9.30
2018-12-15T19:45:14.708Z,9.23
2018-12-15T19:47:18.274Z,8.90
2018-12-15T19:49:21.786Z,9.65
2018-12-15T19:51:29.543Z,9.10
2018-12-15T19:53:30.835Z,8.90
2018-12-15T19:55:34.380Z,8.13
2018-12-15T19:57:38.285Z,8.13
2018-12-15T19:59:41.846Z,8.70
2018-12-15T20:01:47.532Z,8.15
2018-12-15T20:03:51.046Z,8.75
2018-12-15T20:05:54.667Z,8.87
2018-12-15T20:07:58.186Z,9.80
2018-12-15T20:10:02.301Z,8.60
2018-12-15T20:12:06.366Z,8.50
2018-12-15T20:15:34.102Z,8.80
2018-12-15T20:17:37.400Z,9.33
2018-12-15T20:19:40.750Z,9.35
2018-12-15T20:21:44.541Z,8.70
2018-12-15T20:23:47.762Z,9.03
2018-12-15T20:25:50.953Z,10.00
2018-12-15T20:27:54.519Z,9.58
2018-12-15T20:29:58.341Z,9.00
2018-12-15T20:32:02.445Z,8.90
2018-12-15T20:34:06.058Z,9.83
2018-12-15T20:36:09.802Z,9.90
2018-12-15T20:38:14.072Z,9.50
2018-12-15T20:40:17.295Z,9.45
2018-12-15T20:42:20.767Z,8.63
2018-12-15T20:44:24.262Z,8.60
2018-12-15T20:46:28.203Z,8.60
2018-12-15T20:48:31.402Z,7.97
2018-12-15T20:50:34.602Z,8.48
2018-12-15T20:52:37.843Z,8.73
2018-12-15T20:54:41.512Z,9.40
2018-12-15T20:56:44.771Z,8.10
2018-12-15T20:58:48.539Z,7.90
2018-12-15T21:00:52.488Z,7.72
2018-12-15T21:02:56.015Z,8.20
2018-12-15T21:04:59.199Z,7.80
2018-12-15T21:07:03.157Z,8.65
2018-12-15T21:09:08.342Z,8.53
2018-12-15T21:11:12.140Z,8.25
2018-12-15T21:13:15.950Z,8.93
2018-12-15T21:15:22.710Z,8.03
2018-12-15T21:17:26.179Z,8.28
2018-12-15T21:19:30.418Z,7.87
2018-12-15T21:21:35.906Z,7.87
2018-12-15T21:23:39.442Z,8.75
2018-12-15T21:25:43.070Z,8.80
2018-12-15T21:27:46.650Z,8.43
2018-12-15T21:29:49.943Z,8.67
2018-12-15T21:31:56.734Z,9.40
2018-12-15T21:33:59.152Z,9.03
2018-12-15T21:36:02.655Z,8.00
2018-12-15T21:38:06.166Z,8.00
2018-12-15T21:40:10.622Z,8.23
2018-12-15T21:42:14.180Z,7.87
2018-12-15T21:44:17.745Z,8.35
2018-12-15T21:46:21.208Z,8.10
2018-12-15T21:48:24.482Z,8.50
2018-12-15T21:50:28.070Z,7.90
2018-12-15T21:52:31.534Z,8.88
2018-12-15T21:54:35.134Z,7.92
2018-12-15T21:56:38.658Z,8.70
2018-12-15T21:58:42.271Z,8.40
2018-12-15T22:00:45.893Z,8.80
2018-12-15T22:02:49.414Z,9.53
2018-12-15T22:04:53.097Z,8.70
2018-12-15T22:06:56.582Z,9.30
2018-12-15T22:08:59.880Z,9.00
2018-12-15T22:11:03.742Z,8.83
2018-12-15T22:13:06.942Z,8.93
2018-12-15T22:15:10.858Z,8.70
2018-12-15T22:17:14.662Z,8.63
2018-12-15T22:19:18.202Z,9.33
2018-12-15T22:21:22.086Z,9.38
2018-12-15T22:23:25.286Z,9.60
2018-12-15T22:25:28.918Z,9.90
2018-12-15T22:27:32.185Z,10.15
2018-12-15T22:29:35.387Z,10.10
2018-12-15T22:31:38.954Z,9.70
2018-12-15T22:33:42.553Z,10.40
2018-12-15T22:35:46.264Z,10.23
2018-12-15T22:37:49.596Z,10.30
2018-12-15T22:39:53.125Z,10.40
2018-12-15T22:41:58.281Z,11.03
2018-12-15T22:44:02.306Z,9.80
2018-12-15T22:46:05.998Z,10.48
2018-12-15T22:48:09.570Z,11.12
2018-12-15T22:50:12.809Z,11.00
2018-12-15T22:52:16.363Z,10.45
2018-12-15T22:54:19.858Z,11.10
2018-12-15T22:56:23.365Z,10.70
2018-12-15T22:58:26.860Z,11.20
2018-12-15T23:00:35.413Z,11.00
2018-12-15T23:02:39.821Z,11.77
2018-12-15T23:04:43.482Z,11.70
2018-12-15T23:06:46.965Z,11.40
2018-12-15T23:08:50.178Z,11.93
2018-12-15T23:10:53.689Z,11.38
2018-12-15T23:12:57.227Z,11.43
2018-12-15T23:15:00.935Z,11.95
2018-12-15T23:17:04.705Z,11.95
2018-12-15T23:19:08.982Z,12.35
2018-12-15T23:21:13.024Z,12.20
2018-12-15T23:23:16.207Z,11.68
2018-12-15T23:25:19.760Z,12.70
2018-12-15T23:27:23.694Z,12.37
2018-12-15T23:29:27.574Z,12.37
2018-12-15T23:31:31.301Z,12.07
2018-12-15T23:33:34.535Z,12.70
2018-12-15T23:35:38.038Z,12.03
2018-12-15T23:37:41.571Z,12.65
2018-12-15T23:39:45.107Z,14.07
2018-12-15T23:41:49.172Z,14.15
2018-12-15T23:43:52.638Z,14.38
2018-12-15T23:45:56.325Z,13.48
2018-12-15T23:47:59.523Z,13.93
2018-12-15T23:50:03.894Z,13.00
2018-12-15T23:52:07.390Z,13.90
2018-12-15T23:54:10.638Z,13.65
2018-12-15T23:56:13.877Z,13.40
2018-12-15T23:58:17.449Z,13.40
